Time;durP1;ratioP1;P1;durP2;ratioP2;P2;SDS_P1;SDS_P2;PMS_P1;PMS_P2;Temp;Humidity;BMP_temperature;BMP_pressure;BME280_temperature;BME280_humidity;BME280_pressure;Samples;Min_cycle;Max_cycle;Signal;HPM_P1;HPM_P2
2022/06/02 00:02:52;;;;;;;4.23;2.13;;;10.60;99.90;;;;;;5003467;28;20418;-84
2022/06/02 00:05:34;;;;;;;4.20;1.87;;;10.50;99.90;;;;;;5012572;28;20415;-82
2022/06/02 00:08:12;;;;;;;2.87;2.47;;;10.40;99.90;;;;;;5011543;28;20848;-84
2022/06/02 00:11:04;;;;;;;5.73;2.00;;;10.30;99.90;;;;;;5012478;28;20479;-84
2022/06/02 00:13:48;;;;;;;3.70;2.27;;;10.30;99.90;;;;;;4994617;28;20988;-83
2022/06/02 00:16:25;;;;;;;2.60;1.77;;;10.30;99.90;;;;;;4993916;28;20960;-84
2022/06/02 00:18:56;;;;;;;4.20;2.30;;;10.20;99.90;;;;;;5012327;28;20411;-83
2022/06/02 00:21:46;;;;;;;7.27;2.27;;;10.10;99.90;;;;;;5012322;28;20427;-84
2022/06/02 00:24:27;;;;;;;4.40;2.70;;;10.10;99.90;;;;;;5012017;28;20783;-83
2022/06/02 00:27:14;;;;;;;5.70;2.93;;;10.00;99.90;;;;;;5012076;28;20406;-84
2022/06/02 00:29:58;;;;;;;6.20;4.40;;;9.90;99.90;;;;;;5012157;28;20450;-84
2022/06/02 00:33:04;;;;;;;4.20;3.47;;;9.90;99.90;;;;;;5011996;28;20411;-84
2022/06/02 00:35:53;;;;;;;5.23;3.90;;;9.70;99.90;;;;;;5011364;28;20437;-82
2022/06/02 00:38:31;;;;;;;7.30;3.70;;;9.70;99.90;;;;;;4994321;28;20453;-82
2022/06/02 00:41:20;;;;;;;5.33;4.80;;;9.60;99.90;;;;;;5011986;28;20411;-82
2022/06/02 00:44:23;;;;;;;5.90;4.53;;;9.60;99.90;;;;;;5011351;28;20829;-82
2022/06/02 00:47:05;;;;;;;8.77;4.60;;;9.60;99.90;;;;;;5011512;28;20508;-82
2022/06/02 00:49:51;;;;;;;6.40;4.00;;;9.60;99.90;;;;;;4998565;28;20429;-83
2022/06/02 00:52:28;;;;;;;6.30;4.37;;;9.60;99.90;;;;;;5019876;28;20420;-83
2022/06/02 00:58:12;;;;;;;4.83;3.97;;;9.50;99.90;;;;;;5014118;28;20410;-83
2022/06/02 01:00:44;;;;;;;5.80;4.83;;;9.50;99.90;;;;;;5011871;28;20764;-83
2022/06/02 01:03:17;;;;;;;6.70;4.40;;;9.40;99.90;;;;;;4993599;28;20460;-82
2022/06/02 01:06:04;;;;;;;4.23;3.83;;;9.30;99.90;;;;;;5011886;28;20429;-83
2022/06/02 01:08:54;;;;;;;4.77;3.73;;;9.30;99.90;;;;;;5011856;28;20886;-84
2022/06/02 01:11:29;;;;;;;4.87;4.37;;;9.20;99.90;;;;;;5011904;28;20420;-83
2022/06/02 01:14:02;;;;;;;5.70;4.17;;;9.10;99.90;;;;;;5012463;28;20403;-82
2022/06/02 01:16:44;;;;;;;5.60;4.87;;;9.10;99.90;;;;;;5011488;28;20413;-82
2022/06/02 01:19:53;;;;;;;6.50;3.77;;;9.10;99.90;;;;;;5011892;28;20427;-82
2022/06/02 01:22:33;;;;;;;5.37;4.00;;;9.00;99.90;;;;;;5011919;28;20419;-82
2022/06/02 01:25:36;;;;;;;7.37;4.37;;;9.10;99.90;;;;;;5001954;28;20490;-83
2022/06/02 01:28:23;;;;;;;7.57;4.10;;;9.00;99.90;;;;;;5031415;28;20415;-83
2022/06/02 01:31:25;;;;;;;5.77;3.63;;;8.90;99.90;;;;;;5013162;28;21014;-82
2022/06/02 01:34:11;;;;;;;6.57;4.87;;;8.90;99.90;;;;;;4976126;28;20431;-83
2022/06/02 01:36:55;;;;;;;5.80;4.97;;;8.90;99.90;;;;;;5031371;28;20415;-82
2022/06/02 01:39:54;;;;;;;5.73;4.27;;;8.90;99.90;;;;;;5031344;28;20768;-81
2022/06/02 01:42:58;;;;;;;5.77;4.50;;;8.90;99.90;;;;;;5013521;28;20515;-81
2022/06/02 01:45:47;;;;;;;8.37;5.53;;;8.80;99.90;;;;;;5031242;28;20569;-81
2022/06/02 01:48:29;;;;;;;6.20;3.83;;;8.80;99.90;;;;;;5013239;28;20956;-83
2022/06/02 01:51:21;;;;;;;5.13;3.83;;;8.80;99.90;;;;;;5031115;28;20404;-82
2022/06/02 01:54:01;;;;;;;5.63;4.10;;;8.80;99.90;;;;;;5031182;28;20502;-82
2022/06/02 01:56:52;;;;;;;7.13;5.27;;;8.70;99.90;;;;;;5016789;28;20427;-82
2022/06/02 01:59:33;;;;;;;5.47;4.53;;;8.70;99.90;;;;;;5034832;28;20776;-81
2022/06/02 02:02:15;;;;;;;5.70;4.83;;;8.70;99.90;;;;;;5034553;28;20436;-83
2022/06/02 02:05:07;;;;;;;5.90;4.10;;;8.60;99.90;;;;;;5034632;28;20975;-83
2022/06/02 02:07:54;;;;;;;5.67;4.50;;;8.60;99.90;;;;;;5017210;28;20991;-83
2022/06/02 02:10:39;;;;;;;5.70;4.87;;;8.60;99.90;;;;;;5017008;28;20454;-81
2022/06/02 02:13:58;;;;;;;5.73;4.43;;;8.50;99.90;;;;;;5034669;28;20771;-81
2022/06/02 02:16:29;;;;;;;6.33;4.80;;;8.50;99.90;;;;;;4934623;29;20463;-81
2022/06/02 02:19:08;;;;;;;6.13;4.03;;;8.50;99.90;;;;;;5029880;28;20547;-81
2022/06/02 02:21:44;;;;;;;6.33;4.60;;;8.40;99.90;;;;;;5034426;28;20473;-84
2022/06/02 02:24:48;;;;;;;5.33;4.23;;;8.40;99.90;;;;;;5034399;28;20470;-85
2022/06/02 02:27:32;;;;;;;6.03;4.47;;;8.30;99.90;;;;;;4996699;28;20984;-84
2022/06/02 02:30:09;;;;;;;6.10;4.20;;;8.30;99.90;;;;;;5034209;28;20475;-84
2022/06/02 02:32:48;;;;;;;5.87;3.40;;;8.20;99.90;;;;;;5035564;28;20501;-89
2022/06/02 02:35:27;;;;;;;5.40;3.53;;;8.20;99.90;;;;;;5035015;28;20430;-84
2022/06/02 02:38:09;;;;;;;6.67;4.37;;;8.10;99.90;;;;;;5035182;28;20419;-82
2022/06/02 02:40:55;;;;;;;6.27;3.60;;;8.00;99.90;;;;;;5017475;28;20942;-82
2022/06/02 02:43:23;;;;;;;4.10;3.67;;;8.00;99.90;;;;;;5035101;28;20492;-82
2022/06/02 02:46:11;;;;;;;6.47;3.50;;;7.80;99.90;;;;;;5016972;28;20916;-82
2022/06/02 02:49:03;;;;;;;4.83;4.23;;;7.80;99.90;;;;;;5035094;28;20497;-82
2022/06/02 02:51:43;;;;;;;4.53;3.50;;;7.80;99.90;;;;;;5035009;28;20423;-82
2022/06/02 02:54:31;;;;;;;6.50;3.77;;;7.80;99.90;;;;;;5017154;28;20432;-82
2022/06/02 02:57:19;;;;;;;7.17;4.43;;;7.90;99.90;;;;;;5034999;28;20844;-82
2022/06/02 02:59:53;;;;;;;5.13;3.90;;;7.90;99.90;;;;;;5034775;28;20468;-82
2022/06/02 03:02:34;;;;;;;7.70;4.33;;;7.90;99.90;;;;;;5034506;28;20465;-82
2022/06/02 03:05:11;;;;;;;5.63;4.30;;;8.00;99.90;;;;;;5034665;28;20480;-82
2022/06/02 03:07:36;;;;;;;4.83;4.20;;;8.00;99.90;;;;;;5034589;28;20403;-81
2022/06/02 03:10:25;;;;;;;6.00;5.23;;;7.90;99.90;;;;;;5034593;28;20934;-82
2022/06/02 03:12:58;;;;;;;5.80;4.23;;;7.80;99.90;;;;;;5034605;28;20411;-81
2022/06/02 03:15:48;;;;;;;7.53;4.20;;;7.60;99.90;;;;;;5034552;28;20404;-82
2022/06/02 03:18:30;;;;;;;6.30;4.83;;;7.60;99.90;;;;;;5016527;28;20508;-82
2022/06/02 03:21:18;;;;;;;4.60;3.80;;;7.60;99.90;;;;;;5034443;28;20482;-82
2022/06/02 03:24:11;;;;;;;4.37;3.77;;;7.50;99.90;;;;;;5034251;28;20526;-81
2022/06/02 03:27:13;;;;;;;10.23;4.90;;;7.50;99.90;;;;;;5034288;28;20414;-81
2022/06/02 03:30:16;;;;;;;7.57;5.80;;;7.70;99.90;;;;;;5034157;28;20458;-82
2022/06/02 03:33:24;;;;;;;7.23;5.50;;;7.90;99.90;;;;;;5033953;28;20418;-82
2022/06/02 03:36:06;;;;;;;8.23;6.37;;;8.00;99.90;;;;;;4987953;28;20418;-83
2022/06/02 03:38:58;;;;;;;7.00;5.77;;;8.10;99.90;;;;;;5034027;28;20419;-82
2022/06/02 03:41:46;;;;;;;8.77;5.03;;;8.10;99.90;;;;;;5034116;28;20414;-83
2022/06/02 03:44:36;;;;;;;7.47;6.50;;;8.10;99.90;;;;;;5033980;28;20560;-83
2022/06/02 03:47:27;;;;;;;7.80;6.30;;;8.10;99.90;;;;;;5033532;28;20427;-81
2022/06/02 03:50:07;;;;;;;8.10;6.07;;;8.00;99.90;;;;;;5033964;28;20453;-81
2022/06/02 03:52:44;;;;;;;8.70;6.47;;;7.90;99.90;;;;;;5016040;28;20430;-81
2022/06/02 03:55:51;;;;;;;7.23;5.40;;;7.90;99.90;;;;;;5033957;28;20541;-82
2022/06/02 03:58:28;;;;;;;7.33;5.07;;;7.90;99.90;;;;;;5015461;28;20865;-81
2022/06/02 04:01:01;;;;;;;12.70;6.90;;;7.90;99.90;;;;;;5033312;28;20421;-81
2022/06/02 04:04:00;;;;;;;9.33;6.43;;;8.10;99.90;;;;;;5015815;28;20465;-81
2022/06/02 04:06:57;;;;;;;10.30;6.83;;;8.10;99.90;;;;;;5033721;28;20418;-81
2022/06/02 04:09:33;;;;;;;13.50;7.20;;;8.10;99.90;;;;;;5033637;28;20916;-81
2022/06/02 04:15:20;;;;;;;11.43;7.97;;;8.20;99.90;;;;;;5033829;28;20926;-82
2022/06/02 04:18:00;;;;;;;8.17;6.73;;;8.40;99.90;;;;;;5032681;28;20473;-81
2022/06/02 04:20:38;;;;;;;9.60;7.67;;;8.40;99.90;;;;;;5033384;28;20415;-82
2022/06/02 04:23:39;;;;;;;11.70;8.93;;;8.50;99.90;;;;;;5033129;28;20454;-82
2022/06/02 04:26:22;;;;;;;9.07;7.93;;;8.60;99.90;;;;;;5033244;28;20420;-82
2022/06/02 04:29:03;;;;;;;11.07;7.93;;;8.70;99.90;;;;;;5033079;28;20414;-82
2022/06/02 04:32:07;;;;;;;9.07;7.70;;;8.70;99.90;;;;;;5032727;28;20475;-82
2022/06/02 04:34:38;;;;;;;9.90;8.03;;;8.70;99.90;;;;;;5033096;28;20409;-82
2022/06/02 04:37:16;;;;;;;12.07;9.73;;;8.90;99.90;;;;;;5033158;28;20940;-82
2022/06/02 04:40:09;;;;;;;11.40;9.03;;;9.10;99.90;;;;;;5033041;28;20448;-82
2022/06/02 04:43:06;;;;;;;13.47;10.77;;;9.10;99.90;;;;;;5032961;28;20423;-82
2022/06/02 04:45:45;;;;;;;12.50;9.47;;;9.20;99.90;;;;;;5032632;28;20446;-82
2022/06/02 04:48:39;;;;;;;12.20;8.90;;;9.40;99.90;;;;;;5015249;28;20837;-82
2022/06/02 04:51:20;;;;;;;17.63;11.87;;;9.60;99.90;;;;;;5032910;28;20514;-82
2022/06/02 04:54:09;;;;;;;14.47;11.17;;;9.80;99.90;;;;;;5032124;28;20414;-82
2022/06/02 04:57:00;;;;;;;15.73;9.77;;;9.90;99.90;;;;;;5032422;28;20416;-82
2022/06/02 04:59:49;;;;;;;12.67;10.03;;;10.00;99.90;;;;;;5032843;28;20428;-82
2022/06/02 05:02:42;;;;;;;12.23;8.97;;;10.20;99.90;;;;;;5032486;28;20458;-82
2022/06/02 05:05:46;;;;;;;12.33;10.23;;;10.30;99.90;;;;;;5032569;28;20440;-82
2022/06/02 05:08:39;;;;;;;9.90;8.90;;;10.50;99.90;;;;;;4945003;28;20436;-82
2022/06/02 05:11:30;;;;;;;9.60;8.40;;;10.70;99.90;;;;;;5032674;28;20836;-82
2022/06/02 05:14:28;;;;;;;10.73;8.63;;;10.80;99.90;;;;;;5032660;28;20425;-82
2022/06/02 05:17:09;;;;;;;10.03;8.37;;;10.90;99.90;;;;;;5014618;28;20425;-82
2022/06/02 05:20:01;;;;;;;11.10;7.03;;;11.00;99.90;;;;;;5032665;28;20402;-82
2022/06/02 05:22:57;;;;;;;11.20;7.63;;;10.90;99.90;;;;;;5032499;28;20407;-82
2022/06/02 05:25:36;;;;;;;9.63;7.20;;;10.90;99.90;;;;;;5032527;28;20469;-82
2022/06/02 05:28:13;;;;;;;8.17;6.00;;;10.80;99.90;;;;;;5032530;28;20420;-82
2022/06/02 05:31:04;;;;;;;7.37;5.90;;;11.10;99.90;;;;;;5035971;28;20511;-82
2022/06/02 05:33:55;;;;;;;10.10;6.40;;;11.30;99.90;;;;;;5030194;28;20848;-82
2022/06/02 05:36:36;;;;;;;7.90;6.40;;;11.40;99.90;;;;;;5016950;28;20416;-82
2022/06/02 05:39:28;;;;;;;10.27;5.80;;;11.50;99.90;;;;;;5023617;28;20413;-83
2022/06/02 05:42:11;;;;;;;6.57;4.77;;;11.50;99.90;;;;;;5036468;28;20790;-85
2022/06/02 05:44:50;;;;;;;9.70;5.43;;;11.60;99.90;;;;;;5036275;28;21041;-83
2022/06/02 05:47:43;;;;;;;6.60;5.17;;;11.50;99.90;;;;;;5018151;28;20469;-84
2022/06/02 05:50:31;;;;;;;7.60;5.03;;;11.50;99.90;;;;;;5036240;28;20521;-84
2022/06/02 05:53:20;;;;;;;7.33;5.37;;;12.10;99.90;;;;;;5035995;28;20931;-83
2022/06/02 05:55:53;;;;;;;5.87;4.83;;;12.70;99.90;;;;;;5036112;28;20416;-85
2022/06/02 05:58:38;;;;;;;7.03;4.53;;;13.10;99.90;;;;;;5035943;28;20498;-84
2022/06/02 06:01:43;;;;;;;3.20;2.27;;;13.60;99.90;;;;;;5035017;28;20940;-83
2022/06/02 06:04:33;;;;;;;4.10;3.70;;;14.00;1.00;;;;;;5017231;28;21071;-85
2022/06/02 06:07:25;;;;;;;4.10;2.60;;;13.50;1.00;;;;;;5036106;28;20449;-85
2022/06/02 06:09:59;;;;;;;3.87;1.83;;;13.40;4.60;;;;;;5036059;28;20405;-84
2022/06/02 06:12:58;;;;;;;3.33;2.17;;;13.20;6.20;;;;;;5036376;28;20886;-83
2022/06/02 06:15:35;;;;;;;2.40;1.80;;;13.20;28.90;;;;;;5036071;28;20484;-83
2022/06/02 06:18:34;;;;;;;4.03;1.67;;;13.40;1.70;;;;;;5018629;28;20439;-83
2022/06/02 06:21:22;;;;;;;3.90;1.40;;;13.30;26.10;;;;;;5035917;28;20416;-84
2022/06/02 06:24:01;;;;;;;3.83;1.63;;;13.20;66.10;;;;;;5035796;28;20984;-83
2022/06/02 06:27:00;;;;;;;5.60;2.13;;;13.10;99.90;;;;;;5035824;28;20413;-86
2022/06/02 06:30:06;;;;;;;2.07;1.10;;;12.90;99.90;;;;;;5035485;28;20817;-83
2022/06/02 06:32:54;;;;;;;4.00;1.30;;;12.80;99.90;;;;;;5036150;28;20925;-84
2022/06/02 06:35:42;;;;;;;3.80;1.20;;;12.70;99.90;;;;;;5018311;28;20419;-88
2022/06/02 06:38:34;;;;;;;2.07;1.13;;;12.50;99.90;;;;;;5018390;28;20424;-86
2022/06/02 06:41:06;;;;;;;3.27;2.30;;;12.60;99.90;;;;;;5017246;28;20562;-86
2022/06/02 06:43:51;;;;;;;4.97;2.40;;;12.60;99.90;;;;;;5035460;28;20974;-85
2022/06/02 06:46:27;;;;;;;2.43;1.40;;;12.70;99.90;;;;;;5017820;28;20454;-87
2022/06/02 06:49:20;;;;;;;2.00;1.07;;;12.80;99.90;;;;;;5035950;28;20449;-86
2022/06/02 06:52:08;;;;;;;2.20;1.20;;;13.00;99.90;;;;;;5035993;28;20423;-86
2022/06/02 06:55:04;;;;;;;2.00;1.13;;;13.30;40.00;;;;;;5035806;28;20433;-84
2022/06/02 06:57:37;;;;;;;2.83;1.00;;;13.40;10.10;;;;;;5017807;28;20479;-85
2022/06/02 07:00:19;;;;;;;3.50;1.20;;;13.50;18.70;;;;;;5035403;28;20803;-85
2022/06/02 07:03:11;;;;;;;3.00;1.40;;;13.70;1.00;;;;;;5017834;28;20423;-84
2022/06/02 07:05:48;;;;;;;2.27;0.50;;;13.70;1.00;;;;;;5035542;28;20855;-86
2022/06/02 07:08:32;;;;;;;1.57;0.40;;;13.70;1.00;;;;;;5035337;28;20412;-84
2022/06/02 07:14:53;;;;;;;2.57;1.57;;;13.70;1.00;;;;;;5035970;28;20773;-84
2022/06/02 07:17:42;;;;;;;2.00;0.70;;;13.60;1.00;;;;;;5015273;28;20432;-86
2022/06/02 07:20:20;;;;;;;1.93;1.27;;;13.30;1.00;;;;;;5035365;28;20410;-86
2022/06/02 07:23:27;;;;;;;1.43;1.03;;;13.40;1.00;;;;;;5035065;28;20405;-85
2022/06/02 07:26:31;;;;;;;2.10;1.17;;;13.50;21.80;;;;;;4991484;28;20832;-86
2022/06/02 07:29:29;;;;;;;4.37;1.63;;;13.90;41.60;;;;;;4954890;29;20519;-85
2022/06/02 07:32:30;;;;;;;2.10;1.00;;;14.00;1.00;;;;;;4954366;29;20445;-85
2022/06/02 07:35:17;;;;;;;2.23;1.23;;;14.00;1.00;;;;;;5028544;28;20413;-84
2022/06/02 07:37:57;;;;;;;2.67;1.13;;;13.90;1.00;;;;;;5017185;28;20466;-85
2022/06/02 07:40:58;;;;;;;1.37;0.90;;;13.90;1.00;;;;;;5034749;28;20412;-85
2022/06/02 07:43:53;;;;;;;3.20;1.20;;;13.90;1.00;;;;;;4963734;28;20543;-83
2022/06/02 07:46:21;;;;;;;2.80;1.30;;;13.80;1.00;;;;;;5034312;28;20425;-83
2022/06/02 07:49:12;;;;;;;2.57;0.90;;;13.70;1.00;;;;;;5016488;28;20547;-84
2022/06/02 07:52:04;;;;;;;2.63;1.13;;;13.70;1.00;;;;;;5033953;28;20508;-87
2022/06/02 07:54:54;;;;;;;3.10;1.13;;;13.80;1.00;;;;;;5034003;28;20417;-82
2022/06/02 07:57:25;;;;;;;3.93;1.30;;;14.10;8.80;;;;;;5034181;28;20564;-84
2022/06/02 08:00:14;;;;;;;2.53;1.00;;;14.20;17.80;;;;;;5033732;28;20758;-84
2022/06/02 08:02:58;;;;;;;4.70;1.67;;;13.90;1.00;;;;;;5021392;28;20424;-84
2022/06/02 08:05:55;;;;;;;3.33;1.70;;;13.70;1.00;;;;;;5033690;28;20429;-80
2022/06/02 08:08:49;;;;;;;3.70;1.67;;;13.60;3.30;;;;;;5033709;28;20412;-79
2022/06/02 08:11:46;;;;;;;3.27;1.20;;;13.70;41.20;;;;;;5032743;28;20412;-80
2022/06/02 08:14:27;;;;;;;1.93;1.20;;;13.70;1.00;;;;;;5025859;28;20446;-81
2022/06/02 08:17:00;;;;;;;2.90;1.50;;;13.50;30.00;;;;;;5028323;28;20425;-81
2022/06/02 08:19:48;;;;;;;4.10;1.83;;;13.50;99.90;;;;;;5033666;28;20397;-80
2022/06/02 08:22:27;;;;;;;3.93;1.27;;;13.40;99.90;;;;;;5015923;28;20409;-80
2022/06/02 08:25:08;;;;;;;2.73;0.50;;;13.20;99.90;;;;;;5033560;28;20987;-81
2022/06/02 08:28:02;;;;;;;4.43;1.40;;;13.20;99.90;;;;;;5015776;28;20424;-81
2022/06/02 08:31:01;;;;;;;3.00;1.43;;;13.10;99.90;;;;;;5032915;28;20477;-81
2022/06/02 08:33:50;;;;;;;2.00;1.00;;;13.10;99.90;;;;;;5033362;28;20413;-82
2022/06/02 08:36:31;;;;;;;3.10;1.00;;;13.10;99.90;;;;;;5033191;28;20470;-81
2022/06/02 08:39:44;;;;;;;18.33;2.83;;;13.10;99.90;;;;;;5033275;28;20971;-81
2022/06/02 08:42:25;;;;;;;4.37;1.23;;;13.10;99.90;;;;;;5033256;28;20428;-81
2022/06/02 08:45:03;;;;;;;1.80;0.80;;;13.10;99.90;;;;;;5015251;28;20479;-83
2022/06/02 08:48:02;;;;;;;2.60;0.70;;;13.20;99.90;;;;;;5009996;28;20428;-84
2022/06/02 08:50:52;;;;;;;1.73;1.07;;;13.40;99.90;;;;;;4949258;28;20418;-88
2022/06/02 08:53:59;;;;;;;2.67;0.90;;;13.30;99.90;;;;;;4994780;28;20789;-85
2022/06/02 08:56:52;;;;;;;2.83;1.57;;;13.30;99.90;;;;;;5012754;28;20536;-89
2022/06/02 08:59:38;;;;;;;4.40;0.93;;;13.40;99.90;;;;;;5012764;28;20415;-88
2022/06/02 09:02:50;;;;;;;2.80;1.10;;;13.80;48.90;;;;;;5013319;28;20824;-81
2022/06/02 09:06:00;;;;;;;1.57;0.53;;;14.40;1.00;;;;;;4967229;28;20440;-83
2022/06/02 09:08:49;;;;;;;1.37;0.60;;;15.50;1.00;;;;;;4982391;28;20426;-79
2022/06/02 09:11:23;;;;;;;2.70;1.30;;;15.70;59.70;;;;;;5013214;28;20424;-79
2022/06/02 09:14:04;;;;;;;2.87;1.13;;;15.20;99.90;;;;;;5013041;28;20449;-78
2022/06/02 09:16:36;;;;;;;1.93;1.37;;;15.50;99.90;;;;;;5012905;28;20415;-80
2022/06/02 09:19:38;;;;;;;3.67;0.70;;;15.40;99.90;;;;;;5013082;28;20888;-80
2022/06/02 09:22:32;;;;;;;3.00;0.70;;;15.50;99.90;;;;;;5013166;28;20513;-78
2022/06/02 09:25:35;;;;;;;3.50;0.70;;;15.40;1.00;;;;;;5012978;28;20469;-81
2022/06/02 09:28:49;;;;;;;2.93;0.73;;;15.30;99.90;;;;;;5013088;28;20418;-78
2022/06/02 09:31:36;;;;;;;3.97;0.73;;;15.40;1.00;;;;;;5012491;28;20461;-78
2022/06/02 09:34:39;;;;;;;5.33;0.90;;;15.80;1.00;;;;;;4995290;28;20429;-80
2022/06/02 09:37:20;;;;;;;2.00;0.77;;;16.50;99.90;;;;;;5013002;28;20416;-80
2022/06/02 09:40:00;;;;;;;4.13;0.80;;;17.00;99.90;;;;;;5013042;28;20411;-81
2022/06/02 09:42:31;;;;;;;4.03;1.10;;;17.30;99.90;;;;;;5011564;28;20939;-83
2022/06/02 09:45:11;;;;;;;2.20;0.90;;;17.40;99.90;;;;;;5011319;28;20511;-82
2022/06/02 09:47:53;;;;;;;3.10;0.87;;;17.20;99.90;;;;;;4994077;28;20421;-83
2022/06/02 09:50:42;;;;;;;2.83;0.87;;;16.90;33.50;;;;;;4993980;28;20437;-83
2022/06/02 09:53:23;;;;;;;2.80;0.73;;;16.70;99.50;;;;;;5012740;28;20406;-83
2022/06/02 09:56:09;;;;;;;2.30;0.40;;;16.70;1.00;;;;;;5012804;28;20415;-81
2022/06/02 09:58:45;;;;;;;1.00;0.50;;;16.30;1.00;;;;;;5012693;28;20412;-81
2022/06/02 10:01:28;;;;;;;1.73;0.33;;;16.00;1.00;;;;;;5012483;28;20495;-81
2022/06/02 10:04:05;;;;;;;3.67;0.63;;;15.60;1.00;;;;;;5012703;28;20461;-82
2022/06/02 10:07:06;;;;;;;2.00;0.97;;;15.50;8.90;;;;;;5012722;28;20412;-81
2022/06/02 10:09:39;;;;;;;2.70;0.60;;;15.40;99.90;;;;;;5012669;28;20409;-81
2022/06/02 10:15:15;;;;;;;3.70;1.63;;;15.30;99.90;;;;;;5012328;28;20778;-81
2022/06/02 10:17:59;;;;;;;5.03;1.30;;;15.20;99.90;;;;;;5016109;28;20418;-84
2022/06/02 10:20:40;;;;;;;2.07;1.00;;;15.00;99.90;;;;;;4996076;28;20962;-87
2022/06/02 10:23:41;;;;;;;2.87;1.20;;;14.90;1.00;;;;;;4998291;28;20958;-89
2022/06/02 10:26:38;;;;;;;1.50;0.67;;;15.00;99.90;;;;;;5016038;28;20426;-90
2022/06/02 10:29:48;;;;;;;1.90;0.93;;;14.80;1.00;;;;;;5016171;28;20425;-85
2022/06/02 10:32:58;;;;;;;2.57;0.83;;;14.70;99.90;;;;;;4969180;28;20428;-86
2022/06/02 10:36:12;;;;;;;1.70;0.70;;;14.80;1.00;;;;;;4959643;28;20427;-83
2022/06/02 10:38:42;;;;;;;5.50;0.90;;;14.80;1.00;;;;;;4979171;28;20959;-88
2022/06/02 10:41:46;;;;;;;2.07;1.00;;;14.90;1.00;;;;;;4995524;28;20870;-87
2022/06/02 10:44:27;;;;;;;2.50;1.00;;;14.80;1.00;;;;;;4995267;28;20479;-82
2022/06/02 10:47:00;;;;;;;2.43;1.10;;;14.80;99.90;;;;;;4997802;28;20414;-87
2022/06/02 10:49:38;;;;;;;1.90;1.07;;;14.80;1.00;;;;;;5015074;28;20473;-87
2022/06/02 10:52:23;;;;;;;5.10;0.60;;;14.90;1.00;;;;;;5018279;28;20415;-83
2022/06/02 10:55:16;;;;;;;1.63;0.70;;;14.90;1.00;;;;;;5002113;28;20436;-88
2022/06/02 10:58:06;;;;;;;2.60;0.90;;;15.10;1.00;;;;;;5013398;28;20427;-86
2022/06/02 11:01:09;;;;;;;1.50;0.87;;;15.20;99.90;;;;;;5014561;28;20414;-83
2022/06/02 11:03:50;;;;;;;2.60;0.50;;;15.70;99.90;;;;;;4995799;28;20482;-85
2022/06/02 11:07:04;;;;;;;3.33;0.70;;;16.80;1.00;;;;;;5012403;28;20553;-85
2022/06/02 11:09:32;;;;;;;2.20;0.90;;;17.50;99.90;;;;;;5013346;28;20425;-88
2022/06/02 11:12:25;;;;;;;3.70;1.37;;;18.40;92.30;;;;;;5013511;28;20412;-82
2022/06/02 11:15:21;;;;;;;3.80;0.57;;;18.80;99.90;;;;;;5014468;28;20413;-82
2022/06/02 11:18:14;;;;;;;3.27;0.60;;;18.10;1.00;;;;;;5014043;28;20413;-88
2022/06/02 11:21:01;;;;;;;1.53;0.50;;;17.90;1.00;;;;;;5014521;28;20457;-82
2022/06/02 11:23:48;;;;;;;1.70;0.40;;;17.50;1.00;;;;;;5013371;28;20456;-83
2022/06/02 11:26:47;;;;;;;1.60;0.63;;;17.10;1.00;;;;;;5013943;28;20795;-83
2022/06/02 11:29:22;;;;;;;1.60;0.73;;;16.90;1.00;;;;;;5012894;28;20432;-87
2022/06/02 11:32:12;;;;;;;3.10;0.97;;;17.10;1.00;;;;;;4994205;28;20423;-84
2022/06/02 11:35:15;;;;;;;1.20;0.63;;;17.10;1.00;;;;;;4977177;28;20932;-86
2022/06/02 11:38:07;;;;;;;4.57;0.53;;;16.50;1.00;;;;;;4999967;28;20733;-85
2022/06/02 11:41:06;;;;;;;2.27;0.20;;;16.00;1.00;;;;;;4994484;28;20425;-86
2022/06/02 11:43:46;;;;;;;2.30;0.73;;;15.70;15.50;;;;;;5008590;28;20529;-89
2022/06/02 11:46:24;;;;;;;2.67;0.83;;;15.80;1.00;;;;;;4994267;28;20419;-83
2022/06/02 11:49:17;;;;;;;2.50;0.73;;;16.30;1.00;;;;;;5012313;28;20833;-83
2022/06/02 11:51:51;;;;;;;2.13;0.57;;;16.40;99.90;;;;;;4995759;28;20436;-83
2022/06/02 11:54:51;;;;;;;3.93;0.80;;;16.70;1.00;;;;;;5019856;28;20466;-85
2022/06/02 11:57:32;;;;;;;3.57;1.43;;;16.80;1.00;;;;;;5015872;28;20443;-85
2022/06/02 12:00:26;;;;;;;2.20;1.00;;;17.40;99.90;;;;;;4994481;28;20927;-84
2022/06/02 12:03:24;;;;;;;3.10;0.47;;;17.80;1.00;;;;;;4993305;28;20423;-83
2022/06/02 12:06:21;;;;;;;2.03;0.60;;;17.70;1.00;;;;;;4994346;28;20843;-84
2022/06/02 12:09:25;;;;;;;2.60;0.90;;;17.50;99.90;;;;;;4976187;28;20420;-83
2022/06/02 12:12:20;;;;;;;2.20;0.50;;;17.00;99.90;;;;;;4976830;28;20914;-82
2022/06/02 12:15:29;;;;;;;1.80;0.53;;;17.00;99.90;;;;;;4984649;28;20786;-84
2022/06/02 12:18:26;;;;;;;2.67;0.60;;;17.60;1.00;;;;;;4990539;28;20445;-88
2022/06/02 12:21:26;;;;;;;3.23;1.23;;;18.40;1.00;;;;;;5010210;28;20421;-83
2022/06/02 12:24:17;;;;;;;2.40;1.03;;;19.00;99.90;;;;;;5012335;28;20475;-87
2022/06/02 12:27:25;;;;;;;4.23;0.63;;;18.80;99.90;;;;;;4975725;28;21026;-89
2022/06/02 12:30:12;;;;;;;1.33;0.73;;;19.80;99.90;;;;;;4969101;28;20457;-92
2022/06/02 12:33:09;;;;;;;1.50;0.77;;;19.90;99.90;;;;;;5012942;28;20422;-90
2022/06/02 12:36:11;;;;;;;1.53;0.80;;;20.10;99.90;;;;;;4984869;28;20759;-85
2022/06/02 12:39:21;;;;;;;3.47;0.60;;;20.70;99.90;;;;;;5012568;28;21015;-88
2022/06/02 12:42:23;;;;;;;1.57;0.57;;;21.20;99.90;;;;;;4994146;28;20418;-89
2022/06/02 12:45:08;;;;;;;3.90;1.13;;;21.40;99.90;;;;;;5009447;28;20481;-87
2022/06/02 12:48:14;;;;;;;2.90;1.10;;;21.10;99.90;;;;;;5025204;28;20413;-87
2022/06/02 12:50:54;;;;;;;2.60;0.87;;;19.80;99.90;;;;;;5031058;28;20425;-82
2022/06/02 12:53:52;;;;;;;3.90;0.80;;;19.50;99.90;;;;;;5031715;28;20921;-79
2022/06/02 12:56:46;;;;;;;3.07;1.07;;;19.70;99.90;;;;;;5032986;28;20413;-79
2022/06/02 12:59:47;;;;;;;6.23;1.67;;;19.90;99.90;;;;;;5032384;28;20780;-81
2022/06/02 13:02:38;;;;;;;2.80;0.67;;;19.30;99.90;;;;;;5032615;28;20408;-81
2022/06/02 13:05:15;;;;;;;2.20;0.67;;;20.10;99.90;;;;;;5032666;28;20885;-80
2022/06/02 13:08:18;;;;;;;2.03;0.60;;;21.00;99.90;;;;;;5032780;28;20420;-82
2022/06/02 13:11:22;;;;;;;1.33;0.50;;;21.30;99.90;;;;;;5015734;28;20421;-82
2022/06/02 13:14:26;;;;;;;3.73;0.50;;;21.00;99.90;;;;;;5032734;28;20400;-81
2022/06/02 13:17:04;;;;;;;2.50;0.60;;;19.70;99.90;;;;;;5012888;28;20854;-81
2022/06/02 13:19:35;;;;;;;5.63;1.97;;;19.40;99.90;;;;;;4995483;28;20481;-81
2022/06/02 13:22:30;;;;;;;1.97;0.63;;;20.00;99.90;;;;;;5013211;28;20444;-82
2022/06/02 13:25:15;;;;;;;2.33;0.60;;;20.00;99.90;;;;;;4995214;28;20477;-81
2022/06/02 13:28:15;;;;;;;5.10;0.73;;;19.40;99.90;;;;;;4995168;28;20466;-81
2022/06/02 13:31:19;;;;;;;3.63;0.87;;;19.60;99.90;;;;;;5022369;28;20456;-81
2022/06/02 13:34:14;;;;;;;4.80;0.60;;;20.10;99.90;;;;;;5014499;28;20492;-81
2022/06/02 13:36:58;;;;;;;1.17;0.50;;;21.10;99.90;;;;;;5018888;28;20428;-81
2022/06/02 13:39:59;;;;;;;3.20;0.50;;;20.50;99.90;;;;;;5012673;28;20500;-81
2022/06/02 13:42:43;;;;;;;3.20;0.73;;;20.20;99.90;;;;;;4995105;28;20449;-81
2022/06/02 13:45:32;;;;;;;2.50;0.53;;;20.10;99.90;;;;;;5012200;28;20473;-81
2022/06/02 13:48:34;;;;;;;4.60;0.77;;;20.10;99.90;;;;;;5011844;28;20971;-81
2022/06/02 13:51:26;;;;;;;3.23;0.53;;;20.30;99.90;;;;;;5014836;28;20409;-81
2022/06/02 13:58:00;;;;;;;4.47;0.90;;;19.70;99.90;;;;;;5004347;28;20456;-82
2022/06/02 14:00:56;;;;;;;3.97;0.73;;;19.90;99.90;;;;;;5015845;28;20424;-81
2022/06/02 14:03:42;;;;;;;1.20;0.57;;;19.60;99.90;;;;;;5016054;28;21128;-81
2022/06/02 14:06:12;;;;;;;2.60;0.60;;;19.10;99.90;;;;;;5016212;28;20465;-81
2022/06/02 14:08:46;;;;;;;5.10;0.90;;;19.00;99.90;;;;;;5016827;28;20419;-82
2022/06/02 14:11:33;;;;;;;4.30;0.67;;;19.60;99.90;;;;;;5019177;28;20430;-81
2022/06/02 14:14:16;;;;;;;2.03;0.90;;;19.40;99.90;;;;;;5015506;28;20422;-81
2022/06/02 14:17:15;;;;;;;4.63;1.90;;;18.80;99.90;;;;;;4998276;28;20560;-82
2022/06/02 14:20:07;;;;;;;1.90;0.40;;;18.50;99.90;;;;;;4977438;28;20422;-83
2022/06/02 14:22:45;;;;;;;3.37;0.70;;;19.60;99.90;;;;;;5015800;28;20516;-81
2022/06/02 14:25:30;;;;;;;2.10;0.80;;;19.40;99.90;;;;;;5015658;28;20469;-82
2022/06/02 14:28:29;;;;;;;1.70;0.87;;;19.30;99.90;;;;;;5015533;28;20513;-82
2022/06/02 14:31:13;;;;;;;2.00;0.83;;;19.60;99.90;;;;;;5015192;28;20512;-82
2022/06/02 14:33:45;;;;;;;2.70;0.50;;;19.60;99.90;;;;;;4998103;28;20418;-83
2022/06/02 14:36:41;;;;;;;4.03;0.80;;;19.70;99.90;;;;;;5015692;28;20406;-82
2022/06/02 14:39:36;;;;;;;2.00;0.77;;;19.70;99.90;;;;;;5015530;28;20581;-81
2022/06/02 14:43:03;;;;;;;5.40;1.30;;;19.00;99.90;;;;;;5015483;28;20521;-81
2022/06/02 14:45:21;;;;;;;2.13;0.70;;;18.50;99.90;;;;;;5014834;28;20473;-82
2022/06/02 14:47:57;;;;;;;2.50;0.53;;;18.50;99.90;;;;;;5015386;28;20413;-82
2022/06/02 14:50:51;;;;;;;1.67;0.63;;;18.80;99.90;;;;;;5015396;28;20421;-82
2022/06/02 14:53:40;;;;;;;2.00;0.80;;;18.70;99.90;;;;;;5015287;28;20425;-82
2022/06/02 14:56:31;;;;;;;2.90;0.53;;;18.90;99.90;;;;;;5015371;28;20413;-83
2022/06/02 14:59:30;;;;;;;1.37;0.70;;;18.70;99.90;;;;;;5015000;28;20418;-82